Time;durP1;ratioP1;P1;durP2;ratioP2;P2;SDS_P1;SDS_P2;PMS_P1;PMS_P2;Temp;Humidity;BMP_temperature;BMP_pressure;BME280_temperature;BME280_humidity;BME280_pressure;Samples;Min_cycle;Max_cycle;Signal;HPM_P1;HPM_P2
2024/03/06 00:00:33;;;;;;;45.63;23.88;;;;;;;9.50;100.00;100026.97;5133655;27;20055;-45
2024/03/06 00:03:03;;;;;;;43.88;24.20;;;;;;;9.51;100.00;100037.53;5133891;27;20119;-44
2024/03/06 00:05:31;;;;;;;44.72;24.20;;;;;;;9.54;100.00;100044.47;5133975;27;20047;-44
2024/03/06 00:08:00;;;;;;;45.75;24.35;;;;;;;9.42;100.00;100044.25;5133689;27;20047;-45
2024/03/06 00:10:28;;;;;;;46.00;23.70;;;;;;;9.15;100.00;100049.34;5133758;27;20047;-44
2024/03/06 00:12:57;;;;;;;45.75;24.33;;;;;;;9.17;100.00;100049.28;5133354;27;20126;-43
2024/03/06 00:15:25;;;;;;;41.88;23.35;;;;;;;9.25;100.00;100043.50;5133598;27;20130;-44
2024/03/06 00:17:54;;;;;;;43.50;24.38;;;;;;;9.25;100.00;100047.03;5133668;27;20493;-45
2024/03/06 00:20:23;;;;;;;43.47;23.15;;;;;;;9.09;100.00;100040.88;5133542;27;20074;-44
2024/03/06 00:22:51;;;;;;;43.13;23.88;;;;;;;9.17;100.00;100047.50;5133366;27;20043;-45
2024/03/06 00:25:20;;;;;;;44.53;23.98;;;;;;;9.07;100.00;100046.31;5133175;27;20042;-43
2024/03/06 00:27:51;;;;;;;46.28;25.25;;;;;;;9.13;100.00;100048.59;5133233;27;20070;-44
2024/03/06 00:30:19;;;;;;;44.75;24.63;;;;;;;9.14;100.00;100052.97;5133172;27;20047;-44
2024/03/06 00:32:48;;;;;;;46.70;24.77;;;;;;;9.18;100.00;100057.19;5133352;27;20079;-44
2024/03/06 00:35:19;;;;;;;45.28;24.20;;;;;;;9.24;100.00;100055.97;5133238;27;20055;-45
2024/03/06 00:37:47;;;;;;;42.97;24.75;;;;;;;9.33;100.00;100057.22;5132933;27;20082;-43
2024/03/06 00:40:16;;;;;;;44.97;24.02;;;;;;;9.38;100.00;100065.81;5132758;27;20051;-44
2024/03/06 00:42:44;;;;;;;46.38;24.42;;;;;;;9.41;100.00;100066.50;5132367;27;20131;-44
2024/03/06 00:45:12;;;;;;;42.55;22.88;;;;;;;9.32;100.00;100066.16;5132964;27;20048;-42
2024/03/06 00:47:40;;;;;;;44.47;23.13;;;;;;;9.37;100.00;100064.13;5132732;27;20492;-43
2024/03/06 00:50:09;;;;;;;45.47;23.88;;;;;;;9.29;100.00;100061.03;5133026;27;20055;-44
2024/03/06 00:52:39;;;;;;;44.05;24.00;;;;;;;9.21;100.00;100057.94;5132561;27;20088;-43
2024/03/06 00:55:08;;;;;;;45.63;25.55;;;;;;;9.14;100.00;100057.44;5132812;27;20582;-44
2024/03/06 00:57:37;;;;;;;41.80;23.42;;;;;;;9.00;100.00;100060.91;5132743;27;20047;-44
2024/03/06 01:00:10;;;;;;;45.75;24.42;;;;;;;9.00;100.00;100060.03;5132456;27;20057;-43
2024/03/06 01:02:39;;;;;;;46.05;24.02;;;;;;;9.13;100.00;100067.22;5132657;27;20039;-49
2024/03/06 01:05:09;;;;;;;46.65;24.42;;;;;;;9.15;100.00;100064.47;5132205;27;20068;-43
2024/03/06 01:07:40;;;;;;;48.13;25.10;;;;;;;9.04;100.00;100077.53;5132722;27;20047;-44
2024/03/06 01:10:09;;;;;;;47.20;24.40;;;;;;;9.03;100.00;100065.16;5132251;27;20047;-44
2024/03/06 01:12:38;;;;;;;44.85;24.52;;;;;;;9.10;100.00;100062.09;5132430;27;20047;-44
2024/03/06 01:15:07;;;;;;;49.45;24.10;;;;;;;9.11;100.00;100063.78;5132481;27;20051;-45
2024/03/06 01:17:36;;;;;;;46.30;24.30;;;;;;;9.07;100.00;100067.59;5132616;27;20046;-44
2024/03/06 01:20:06;;;;;;;45.95;24.40;;;;;;;9.10;100.00;100067.41;5132530;27;20054;-47
2024/03/06 01:22:35;;;;;;;46.33;24.38;;;;;;;8.99;100.00;100069.81;5132560;27;20461;-44
2024/03/06 01:25:07;;;;;;;43.00;23.48;;;;;;;9.01;100.00;100062.59;5132585;27;20050;-44
2024/03/06 01:27:35;;;;;;;46.47;24.10;;;;;;;9.02;100.00;100059.00;5132393;27;20043;-47
2024/03/06 01:30:05;;;;;;;42.47;23.23;;;;;;;8.97;100.00;100060.19;5132594;27;20078;-44
2024/03/06 01:32:33;;;;;;;48.20;24.27;;;;;;;9.00;100.00;100062.69;5132629;27;20051;-44
2024/03/06 01:35:02;;;;;;;45.67;23.52;;;;;;;8.96;100.00;100069.13;5132492;27;20073;-43
2024/03/06 01:37:30;;;;;;;43.33;23.63;;;;;;;9.02;100.00;100069.63;5132463;27;20071;-46
2024/03/06 01:39:59;;;;;;;48.50;25.15;;;;;;;9.04;100.00;100072.22;5132258;27;20108;-44
2024/03/06 01:42:29;;;;;;;45.50;23.90;;;;;;;8.90;100.00;100070.34;5132225;27;20122;-46
2024/03/06 01:44:57;;;;;;;45.80;24.33;;;;;;;8.88;100.00;100083.72;5132103;27;20051;-44
2024/03/06 01:47:25;;;;;;;45.65;24.75;;;;;;;8.94;100.00;100074.53;5132126;27;20472;-45
2024/03/06 01:49:54;;;;;;;42.97;23.65;;;;;;;8.91;100.00;100077.38;5132263;27;20456;-45
2024/03/06 01:52:23;;;;;;;44.35;24.65;;;;;;;8.88;100.00;100074.91;5131588;27;20456;-45
2024/03/06 01:54:52;;;;;;;43.40;23.50;;;;;;;8.89;100.00;100074.81;5132061;27;20083;-45
2024/03/06 01:57:21;;;;;;;46.25;23.63;;;;;;;8.83;100.00;100069.81;5131886;27;20047;-44
2024/03/06 01:59:51;;;;;;;47.03;24.10;;;;;;;8.61;100.00;100063.97;5131852;27;20503;-44
2024/03/06 02:02:19;;;;;;;44.53;24.48;;;;;;;8.62;100.00;100067.50;5131881;27;20043;-44
2024/03/06 02:04:49;;;;;;;46.95;24.60;;;;;;;8.78;100.00;100071.88;5132054;27;20043;-43
2024/03/06 02:07:20;;;;;;;47.08;25.00;;;;;;;8.80;100.00;100070.00;5131900;27;20088;-45
2024/03/06 02:09:48;;;;;;;47.50;24.45;;;;;;;8.85;100.00;100069.72;5131831;27;20051;-46
2024/03/06 02:12:17;;;;;;;47.13;24.27;;;;;;;8.86;100.00;100074.09;5131660;27;20758;-45
2024/03/06 02:14:45;;;;;;;46.70;24.48;;;;;;;8.83;100.00;100071.63;5131859;27;20051;-44
2024/03/06 02:17:15;;;;;;;44.50;24.65;;;;;;;8.79;100.00;100067.44;5131944;28;20563;-44
2024/03/06 02:19:45;;;;;;;45.38;24.25;;;;;;;8.75;100.00;100068.53;5131758;28;20126;-45
2024/03/06 02:22:15;;;;;;;45.33;24.67;;;;;;;8.74;100.00;100072.13;5131632;28;20050;-45
2024/03/06 02:24:47;;;;;;;41.55;23.92;;;;;;;8.68;100.00;100070.66;5131466;27;20122;-45
2024/03/06 02:27:16;;;;;;;45.58;24.65;;;;;;;8.69;100.00;100067.06;5131640;28;20062;-44
2024/03/06 02:29:44;;;;;;;48.40;26.13;;;;;;;8.78;100.00;100073.66;5131492;27;20052;-46
2024/03/06 02:32:13;;;;;;;47.03;24.38;;;;;;;8.82;100.00;100067.25;5131546;27;20085;-44
2024/03/06 02:34:42;;;;;;;48.35;25.90;;;;;;;8.69;100.00;100068.88;5131170;27;20381;-44
2024/03/06 02:37:11;;;;;;;47.78;24.85;;;;;;;8.82;100.00;100069.91;5131233;27;20057;-45
2024/03/06 02:39:40;;;;;;;52.40;25.50;;;;;;;8.82;100.00;100069.91;5131430;27;20083;-46
2024/03/06 02:42:09;;;;;;;51.13;26.92;;;;;;;8.85;100.00;100073.25;5131370;28;20052;-44
2024/03/06 02:44:37;;;;;;;53.45;27.38;;;;;;;8.75;100.00;100073.84;5131356;28;20043;-43
2024/03/06 02:47:06;;;;;;;49.38;27.35;;;;;;;8.67;100.00;100073.41;5131228;27;20054;-45
2024/03/06 02:49:34;;;;;;;48.13;26.95;;;;;;;8.59;100.00;100069.38;5131212;27;20130;-43
2024/03/06 02:52:03;;;;;;;47.08;25.63;;;;;;;8.56;100.00;100066.88;5131200;27;20061;-44
2024/03/06 02:54:31;;;;;;;49.88;25.25;;;;;;;8.53;100.00;100071.50;5131051;28;20051;-45
2024/03/06 02:57:01;;;;;;;46.67;24.73;;;;;;;8.56;100.00;100066.00;5131350;27;20050;-44
2024/03/06 02:59:29;;;;;;;47.63;24.48;;;;;;;8.49;100.00;100070.84;5131405;27;20051;-45
2024/03/06 03:01:58;;;;;;;41.38;23.25;;;;;;;8.57;100.00;100073.03;5131102;27;20416;-44
2024/03/06 03:04:27;;;;;;;46.17;25.00;;;;;;;8.41;100.00;100073.03;5132070;27;20484;-44
2024/03/06 03:06:55;;;;;;;40.80;23.80;;;;;;;8.51;100.00;100071.59;5134985;27;20404;-43
2024/03/06 03:09:24;;;;;;;47.20;24.55;;;;;;;8.53;100.00;100067.06;5135191;27;20409;-44
2024/03/06 03:11:52;;;;;;;43.47;23.83;;;;;;;8.54;100.00;100073.22;5134806;27;20058;-44
2024/03/06 03:14:22;;;;;;;43.88;24.63;;;;;;;8.57;100.00;100076.56;5134622;27;20051;-44
2024/03/06 03:16:50;;;;;;;46.80;23.70;;;;;;;8.49;100.00;100070.84;5134617;27;20070;-44
2024/03/06 03:19:19;;;;;;;44.53;23.45;;;;;;;8.46;100.00;100064.81;5135140;27;20043;-44
2024/03/06 03:21:47;;;;;;;47.08;25.02;;;;;;;8.43;100.00;100073.81;5135120;27;20070;-44
2024/03/06 03:24:16;;;;;;;48.95;25.45;;;;;;;8.39;100.00;100080.22;5134666;27;20139;-44
2024/03/06 03:26:44;;;;;;;43.88;24.65;;;;;;;8.49;100.00;100080.56;5134591;27;20480;-44
2024/03/06 03:29:12;;;;;;;48.08;24.42;;;;;;;8.45;100.00;100085.22;5134566;27;20047;-44
2024/03/06 03:31:42;;;;;;;44.50;24.27;;;;;;;8.22;100.00;100085.56;5134496;27;20054;-45
2024/03/06 03:34:11;;;;;;;46.15;24.23;;;;;;;8.33;100.00;100091.16;5134607;27;20053;-45
2024/03/06 03:36:42;;;;;;;49.63;26.00;;;;;;;8.29;100.00;100084.28;5134449;27;20170;-45
2024/03/06 03:39:16;;;;;;;47.45;24.83;;;;;;;8.28;100.00;100085.22;5134403;27;20078;-44
2024/03/06 03:41:45;;;;;;;50.03;25.45;;;;;;;8.36;100.00;100085.72;5134223;27;20097;-44
2024/03/06 03:44:14;;;;;;;46.20;24.38;;;;;;;8.21;100.00;100100.66;5134486;27;20051;-44
2024/03/06 03:46:44;;;;;;;49.35;25.73;;;;;;;8.15;100.00;100102.75;5134337;27;20066;-44
2024/03/06 03:49:13;;;;;;;44.45;24.80;;;;;;;7.98;100.00;100104.50;5134331;27;20074;-43
2024/03/06 03:51:42;;;;;;;48.65;26.52;;;;;;;7.88;100.00;100108.56;5134127;27;20069;-46
2024/03/06 03:54:10;;;;;;;50.25;25.73;;;;;;;8.00;100.00;100107.91;5133972;27;20040;-45
2024/03/06 03:56:39;;;;;;;49.38;25.80;;;;;;;8.01;100.00;100107.00;5134055;27;20050;-43
2024/03/06 03:59:08;;;;;;;50.97;25.25;;;;;;;7.94;100.00;100100.28;5134050;27;20047;-45
2024/03/06 04:01:37;;;;;;;55.20;25.90;;;;;;;8.08;100.00;100112.84;5133736;27;20047;-42
2024/03/06 04:04:08;;;;;;;50.90;25.75;;;;;;;8.07;100.00;100111.13;5133870;27;20043;-44
2024/03/06 04:06:36;;;;;;;54.83;26.77;;;;;;;7.93;100.00;100111.84;5134017;27;20061;-44
2024/03/06 04:09:05;;;;;;;52.60;27.73;;;;;;;7.84;100.00;100120.28;5134057;27;20099;-44
2024/03/06 04:11:35;;;;;;;51.30;26.25;;;;;;;7.85;100.00;100122.00;5134050;27;20089;-44
2024/03/06 04:14:04;;;;;;;51.22;26.33;;;;;;;7.86;100.00;100118.41;5133699;27;20411;-42
2024/03/06 04:16:33;;;;;;;51.45;25.65;;;;;;;7.90;100.00;100121.75;5133300;27;20376;-43
2024/03/06 04:19:03;;;;;;;49.53;26.52;;;;;;;7.92;100.00;100123.41;5133826;27;20403;-45
2024/03/06 04:21:33;;;;;;;52.58;26.48;;;;;;;7.78;100.00;100115.28;5133390;27;20043;-44
2024/03/06 04:24:01;;;;;;;53.03;25.92;;;;;;;7.78;100.00;100119.72;5133599;27;20039;-43
2024/03/06 04:26:30;;;;;;;49.92;25.88;;;;;;;7.84;100.00;100122.94;5133436;27;20047;-44
2024/03/06 04:28:58;;;;;;;49.58;25.60;;;;;;;7.70;100.00;100130.72;5133332;27;20497;-44
2024/03/06 04:31:26;;;;;;;47.95;24.50;;;;;;;7.75;100.00;100132.22;5133621;27;20150;-44
2024/03/06 04:33:55;;;;;;;47.78;25.40;;;;;;;7.80;100.00;100137.28;5133538;27;20488;-44
2024/03/06 04:36:23;;;;;;;46.42;24.67;;;;;;;7.72;100.00;100139.47;5133009;27;20047;-44
2024/03/06 04:38:53;;;;;;;51.25;24.63;;;;;;;7.39;100.00;100134.91;5133385;27;20047;-44
2024/03/06 04:41:23;;;;;;;46.67;24.95;;;;;;;7.54;100.00;100137.75;5133182;27;20050;-43
2024/03/06 04:43:52;;;;;;;50.03;24.33;;;;;;;7.62;100.00;100138.22;5132707;27;20074;-44
2024/03/06 04:46:20;;;;;;;49.72;26.17;;;;;;;7.72;100.00;100139.47;5132890;27;20130;-43
2024/03/06 04:48:49;;;;;;;45.55;24.00;;;;;;;7.70;100.00;100136.03;5132795;27;20104;-44
2024/03/06 04:51:19;;;;;;;49.88;24.80;;;;;;;7.53;100.00;100136.00;5132868;27;20054;-44
2024/03/06 04:53:50;;;;;;;46.13;23.55;;;;;;;7.47;100.00;100138.06;5132951;27;20495;-45
2024/03/06 04:56:21;;;;;;;47.42;25.80;;;;;;;7.58;100.00;100145.47;5132819;27;20046;-45
2024/03/06 04:58:51;;;;;;;48.05;24.35;;;;;;;7.63;100.00;100153.22;5133071;27;20051;-44
2024/03/06 05:01:21;;;;;;;47.00;24.10;;;;;;;7.77;100.00;100148.09;5132817;27;20058;-44
2024/03/06 05:03:50;;;;;;;48.42;24.05;;;;;;;7.73;100.00;100150.03;5133110;27;20051;-44
2024/03/06 05:06:36;;;;;;;43.90;23.42;;;;;;;7.75;100.00;100149.97;5132969;27;20055;-43
2024/03/06 05:09:21;;;;;;;50.55;24.70;;;;;;;7.80;100.00;100152.38;5132445;27;20104;-44
2024/03/06 05:12:09;;;;;;;48.28;25.13;;;;;;;7.87;100.00;100152.00;5133008;27;20046;-43
2024/03/06 05:14:56;;;;;;;47.45;24.20;;;;;;;7.87;100.00;100156.44;5132806;27;20104;-45
2024/03/06 05:17:42;;;;;;;45.72;23.58;;;;;;;7.88;100.00;100152.84;5132765;27;20047;-45
2024/03/06 05:20:30;;;;;;;45.28;23.65;;;;;;;7.75;100.00;100147.31;5132532;27;20051;-44
2024/03/06 05:23:17;;;;;;;42.28;23.15;;;;;;;7.84;100.00;100146.84;5132280;27;20040;-44
2024/03/06 05:26:03;;;;;;;43.88;23.63;;;;;;;7.79;100.00;100153.31;5132298;27;20039;-45
2024/03/06 05:28:50;;;;;;;45.85;24.63;;;;;;;7.73;100.00;100152.69;5131893;27;20092;-45
2024/03/06 05:31:35;;;;;;;50.25;25.67;;;;;;;7.82;100.00;100156.69;5133383;27;20055;-45
2024/03/06 05:34:21;;;;;;;46.20;25.05;;;;;;;7.77;100.00;100148.09;5132178;27;20127;-45
2024/03/06 05:37:07;;;;;;;47.08;24.90;;;;;;;7.84;100.00;100154.81;5132310;27;20089;-44
2024/03/06 05:39:52;;;;;;;49.70;25.00;;;;;;;7.78;100.00;100154.25;5132434;27;20076;-44
2024/03/06 05:42:39;;;;;;;48.72;24.10;;;;;;;7.89;100.00;100158.06;5131031;27;20069;-43
2024/03/06 05:45:26;;;;;;;46.28;24.13;;;;;;;7.96;100.00;100161.28;5131790;27;20137;-45
2024/03/06 05:48:12;;;;;;;47.78;25.13;;;;;;;7.84;100.00;100164.56;5131641;27;20160;-45
2024/03/06 05:50:58;;;;;;;47.80;25.08;;;;;;;7.90;100.00;100161.59;5132233;27;20040;-45
2024/03/06 05:53:44;;;;;;;46.80;24.95;;;;;;;7.83;100.00;100165.50;5132400;27;20051;-46
2024/03/06 05:56:29;;;;;;;46.83;24.00;;;;;;;7.64;100.00;100176.19;5132068;27;20054;-45
2024/03/06 05:59:15;;;;;;;44.13;23.90;;;;;;;7.55;100.00;100176.63;5131683;27;20120;-44
2024/03/06 06:01:45;;;;;;;51.05;24.80;;;;;;;7.83;100.00;100179.66;5131379;27;20058;-44
2024/03/06 06:04:14;;;;;;;44.85;24.05;;;;;;;7.87;100.00;100178.53;5131518;27;20050;-45
2024/03/06 06:06:43;;;;;;;44.38;22.92;;;;;;;7.93;100.00;100177.38;5131912;27;20131;-45
2024/03/06 06:09:15;;;;;;;49.30;25.00;;;;;;;7.95;100.00;100176.38;5131501;27;20187;-44
2024/03/06 06:11:44;;;;;;;45.92;25.15;;;;;;;8.12;100.00;100183.50;5131786;27;20127;-45
2024/03/06 06:14:12;;;;;;;50.50;25.33;;;;;;;8.21;100.00;100179.50;5132983;27;20043;-44
2024/03/06 06:16:42;;;;;;;51.85;25.60;;;;;;;7.95;100.00;100175.50;5132560;28;20054;-44
2024/03/06 06:19:11;;;;;;;47.78;24.48;;;;;;;8.16;100.00;100184.19;5133048;27;20096;-44
2024/03/06 06:21:39;;;;;;;48.85;24.02;;;;;;;8.35;100.00;100173.50;5133439;27;20047;-48
2024/03/06 06:24:08;;;;;;;50.47;25.33;;;;;;;8.52;100.00;100179.66;5132131;27;20043;-43
2024/03/06 06:26:36;;;;;;;51.30;26.92;;;;;;;8.43;100.00;100182.78;5131933;27;20096;-47
2024/03/06 06:29:05;;;;;;;49.28;26.92;;;;;;;8.46;100.00;100182.63;5132463;27;20102;-44
2024/03/06 06:31:33;;;;;;;53.67;28.00;;;;;;;8.57;100.00;100184.72;5131623;27;20096;-47
2024/03/06 06:34:01;;;;;;;48.97;26.92;;;;;;;8.68;100.00;100184.13;5131846;27;20057;-44
2024/03/06 06:36:31;;;;;;;56.50;26.90;;;;;;;8.67;100.00;100182.41;5131627;27;20084;-45
2024/03/06 06:38:59;;;;;;;50.80;27.50;;;;;;;8.77;100.00;100186.31;5133526;27;20043;-44
2024/03/06 06:41:32;;;;;;;50.38;26.63;;;;;;;8.66;100.00;100189.53;5135951;27;20092;-44
2024/03/06 06:44:02;;;;;;;52.90;27.65;;;;;;;8.68;100.00;100200.09;5135598;27;20480;-44
2024/03/06 06:46:31;;;;;;;52.65;27.95;;;;;;;8.65;100.00;100201.13;5135733;27;20127;-45
2024/03/06 06:48:59;;;;;;;53.28;26.73;;;;;;;8.80;100.00;100191.47;5135726;27;20086;-46
2024/03/06 06:51:28;;;;;;;49.15;26.35;;;;;;;8.87;100.00;100203.47;5135481;27;20047;-45
2024/03/06 06:53:57;;;;;;;44.88;24.77;;;;;;;8.60;100.00;100201.38;5135192;27;20055;-46
2024/03/06 06:56:28;;;;;;;45.40;25.73;;;;;;;8.59;100.00;100204.13;5135489;27;20047;-44
2024/03/06 06:58:57;;;;;;;49.08;25.25;;;;;;;8.89;100.00;100194.50;5135312;27;20499;-44
2024/03/06 07:01:27;;;;;;;48.13;27.38;;;;;;;9.06;100.00;100198.88;5135338;27;20051;-45
2024/03/06 07:03:55;;;;;;;46.47;24.33;;;;;;;9.12;100.00;100197.69;5135560;27;20047;-45
2024/03/06 07:06:24;;;;;;;48.53;25.65;;;;;;;8.75;100.00;100202.34;5135253;27;20115;-46
2024/03/06 07:08:52;;;;;;;48.05;25.83;;;;;;;8.88;100.00;100199.91;5134825;27;20047;-44
2024/03/06 07:11:23;;;;;;;46.75;25.40;;;;;;;9.01;100.00;100195.63;5135124;27;20134;-45
2024/03/06 07:13:51;;;;;;;48.85;25.50;;;;;;;9.45;100.00;100200.28;5135158;27;20043;-44
2024/03/06 07:16:20;;;;;;;42.65;25.45;;;;;;;9.24;100.00;100194.34;5134822;27;20069;-45
2024/03/06 07:18:48;;;;;;;41.38;24.13;;;;;;;9.26;100.00;100188.94;5134844;27;20479;-44
2024/03/06 07:21:17;;;;;;;46.00;25.27;;;;;;;9.55;100.00;100200.63;5135378;27;20096;-44
2024/03/06 07:23:46;;;;;;;45.60;24.27;;;;;;;9.69;100.00;100196.22;5141727;27;20118;-44
2024/03/06 07:26:14;;;;;;;46.90;24.65;;;;;;;9.80;100.00;100189.44;5153686;27;20042;-44
2024/03/06 07:28:44;;;;;;;45.53;24.52;;;;;;;9.83;100.00;100192.75;5152406;27;20034;-45
2024/03/06 07:31:12;;;;;;;44.22;24.65;;;;;;;10.01;100.00;100204.16;5155584;27;20087;-43
2024/03/06 07:33:40;;;;;;;44.25;25.05;;;;;;;10.06;100.00;100202.09;5155286;27;20129;-45
2024/03/06 07:36:10;;;;;;;46.25;24.17;;;;;;;10.29;99.94;100198.94;5145743;27;20039;-43
2024/03/06 07:38:38;;;;;;;47.88;25.00;;;;;;;10.28;99.54;100207.91;5142566;27;20050;-45
2024/03/06 07:41:07;;;;;;;46.38;25.40;;;;;;;10.31;98.45;100204.19;5142474;27;20066;-42
2024/03/06 07:43:35;;;;;;;45.50;25.33;;;;;;;10.27;97.44;100202.66;5140047;27;20054;-48
2024/03/06 07:46:10;;;;;;;40.05;24.05;;;;;;;10.43;96.59;100210.63;5134759;27;20054;-45
2024/03/06 07:48:38;;;;;;;42.33;24.05;;;;;;;10.41;96.59;100208.00;5134569;27;20073;-45
2024/03/06 07:51:08;;;;;;;45.10;24.73;;;;;;;10.46;95.82;100205.94;5134054;27;20047;-44
2024/03/06 07:53:37;;;;;;;42.47;22.95;;;;;;;10.60;95.85;100207.75;5134630;27;20127;-45
2024/03/06 07:56:05;;;;;;;41.58;24.02;;;;;;;10.76;95.38;100203.22;5134579;27;20413;-45
2024/03/06 07:58:34;;;;;;;37.28;22.15;;;;;;;10.65;94.34;100205.69;5134202;27;20062;-44
2024/03/06 08:01:02;;;;;;;38.25;21.17;;;;;;;10.73;92.73;100202.53;5133887;27;20476;-45
2024/03/06 08:03:31;;;;;;;37.70;20.35;;;;;;;10.58;92.58;100212.34;5134566;27;20103;-44
2024/03/06 08:06:00;;;;;;;36.13;19.45;;;;;;;10.45;91.96;100214.03;5134324;27;20407;-42
2024/03/06 08:08:29;;;;;;;39.65;20.88;;;;;;;10.48;93.29;100213.84;5133992;27;20471;-43
2024/03/06 08:10:57;;;;;;;33.78;19.88;;;;;;;10.51;95.65;100213.66;5134103;27;20488;-43
2024/03/06 08:13:25;;;;;;;35.47;20.05;;;;;;;10.82;93.34;100213.50;5133751;27;20047;-43
2024/03/06 08:15:54;;;;;;;35.53;19.70;;;;;;;10.86;89.92;100220.38;5133534;27;20043;-44
2024/03/06 08:18:22;;;;;;;34.47;20.08;;;;;;;10.73;90.67;100218.56;5133912;27;20146;-44
2024/03/06 08:20:52;;;;;;;33.38;19.92;;;;;;;11.09;89.85;100218.91;5133837;27;20078;-44
2024/03/06 08:23:24;;;;;;;35.35;19.00;;;;;;;10.80;89.11;100218.06;5133504;27;20393;-45
2024/03/06 08:25:53;;;;;;;32.55;18.35;;;;;;;11.31;88.00;100221.13;5133614;27;20043;-43
2024/03/06 08:28:21;;;;;;;35.22;18.80;;;;;;;11.36;86.35;100223.47;5133466;27;20047;-45
2024/03/06 08:30:49;;;;;;;27.70;16.73;;;;;;;11.47;84.67;100221.81;5133520;27;20047;-45
2024/03/06 08:33:17;;;;;;;26.60;17.33;;;;;;;11.69;83.40;100220.47;5133609;27;20079;-44
2024/03/06 08:35:46;;;;;;;26.70;16.23;;;;;;;11.71;82.41;100221.22;5133839;27;20050;-43
2024/03/06 08:38:17;;;;;;;28.98;16.30;;;;;;;11.64;81.41;100222.56;5133307;27;20051;-46
2024/03/06 08:40:46;;;;;;;29.02;17.60;;;;;;;11.76;81.36;100222.59;5132633;27;20488;-44
2024/03/06 08:43:15;;;;;;;27.42;15.25;;;;;;;11.50;81.04;100225.28;5133061;27;20047;-44
2024/03/06 08:45:44;;;;;;;26.42;15.27;;;;;;;11.52;81.70;100223.34;5133376;27;20141;-43
2024/03/06 08:48:12;;;;;;;29.95;16.45;;;;;;;11.60;81.19;100227.25;5133229;27;20099;-44
2024/03/06 08:50:40;;;;;;;24.40;14.63;;;;;;;11.62;80.58;100225.34;5133186;27;20138;-45
2024/03/06 08:53:09;;;;;;;25.40;14.75;;;;;;;11.83;79.91;100228.44;5132822;27;20069;-44
2024/03/06 08:55:39;;;;;;;26.67;15.75;;;;;;;11.99;79.16;100218.47;5132871;27;20043;-44
2024/03/06 08:58:08;;;;;;;27.02;15.38;;;;;;;12.30;77.39;100227.09;5132829;27;20062;-44
2024/03/06 09:00:37;;;;;;;23.25;14.10;;;;;;;12.14;76.31;100218.38;5133017;27;20047;-45
2024/03/06 09:03:05;;;;;;;25.08;14.48;;;;;;;12.19;75.90;100224.28;5131903;27;20113;-44
2024/03/06 09:05:33;;;;;;;25.83;15.30;;;;;;;12.42;74.50;100218.22;5132924;27;20046;-42
2024/03/06 09:08:02;;;;;;;24.33;14.27;;;;;;;12.32;74.02;100225.16;5132652;27;20047;-43
2024/03/06 09:10:34;;;;;;;24.10;13.95;;;;;;;12.45;73.22;100220.72;5133526;27;20043;-45
2024/03/06 09:13:04;;;;;;;24.63;14.68;;;;;;;12.70;73.32;100224.38;5133091;27;20089;-44
2024/03/06 09:15:33;;;;;;;36.53;17.73;;;;;;;13.03;73.03;100219.34;5132851;27;20132;-43
2024/03/06 09:18:01;;;;;;;25.35;14.48;;;;;;;13.16;71.34;100222.84;5132671;27;20134;-44
2024/03/06 09:20:30;;;;;;;23.23;13.90;;;;;;;13.18;70.81;100210.19;5132495;27;20174;-44
2024/03/06 09:22:59;;;;;;;27.13;13.85;;;;;;;13.26;70.68;100208.84;5132364;27;20047;-42
2024/03/06 09:25:28;;;;;;;23.35;13.68;;;;;;;13.16;70.80;100205.94;5132701;27;20067;-44
2024/03/06 09:28:00;;;;;;;22.85;13.40;;;;;;;13.00;70.17;100206.16;5132247;27;20044;-45
2024/03/06 09:30:30;;;;;;;20.00;12.00;;;;;;;12.94;69.76;100206.59;5132254;27;20480;-44
2024/03/06 09:32:58;;;;;;;17.88;10.68;;;;;;;13.14;69.40;100208.72;5131932;27;20065;-45
2024/03/06 09:35:27;;;;;;;17.33;10.32;;;;;;;13.25;69.50;100201.78;5132221;27;20043;-47
2024/03/06 09:37:57;;;;;;;15.70;10.15;;;;;;;13.44;69.48;100204.81;5132203;27;20466;-45
2024/03/06 09:40:26;;;;;;;17.85;10.07;;;;;;;13.59;68.83;100195.66;5132175;27;20054;-44
2024/03/06 09:42:54;;;;;;;28.98;12.65;;;;;;;13.75;68.27;100201.59;5132107;27;20445;-43
2024/03/06 09:45:23;;;;;;;15.07;9.88;;;;;;;13.47;66.78;100196.56;5131951;27;20039;-45
2024/03/06 09:47:53;;;;;;;15.52;8.88;;;;;;;13.46;66.30;100198.38;5131909;27;20047;-45
2024/03/06 09:50:26;;;;;;;16.88;8.63;;;;;;;13.12;66.52;100205.31;5131927;27;20047;-43
2024/03/06 09:52:56;;;;;;;16.15;9.27;;;;;;;13.22;67.14;100200.19;5132077;27;20139;-44
2024/03/06 09:55:27;;;;;;;15.77;9.60;;;;;;;13.52;66.76;100197.09;5131920;27;20495;-44
2024/03/06 09:57:55;;;;;;;16.27;9.80;;;;;;;13.71;65.17;100200.13;5131764;27;20090;-44
2024/03/06 10:00:24;;;;;;;17.73;9.70;;;;;;;13.76;65.37;100194.41;5131630;27;20100;-43
2024/03/06 10:03:00;;;;;;;18.00;9.50;;;;;;;14.10;64.83;100187.38;5131874;27;20039;-45
2024/03/06 10:05:30;;;;;;;20.05;9.52;;;;;;;14.31;65.01;100188.44;5131646;27;20047;-43
2024/03/06 10:07:59;;;;;;;17.15;8.73;;;;;;;14.32;64.80;100187.44;5130445;27;20043;-44
2024/03/06 10:10:28;;;;;;;13.75;8.80;;;;;;;14.49;64.42;100188.03;5110946;28;20048;-44
2024/03/06 10:12:59;;;;;;;15.23;9.30;;;;;;;14.52;64.34;100187.78;5110540;28;20180;-45
2024/03/06 10:15:30;;;;;;;13.57;9.00;;;;;;;14.36;62.91;100187.22;5111171;28;20043;-43
2024/03/06 10:18:13;;;;;;;13.63;8.65;;;;;;;14.07;63.92;100187.59;5110883;28;20040;-46
2024/03/06 10:20:44;;;;;;;;;;;;;;;14.16;64.03;100191.41;5111510;28;20408;-44
2024/03/06 10:23:13;;;;;;;14.20;8.93;;;;;;;14.29;63.92;100187.69;5111173;28;19942;-45
2024/03/06 10:25:44;;;;;;;14.80;9.02;;;;;;;14.54;63.33;100180.47;5110728;28;20461;-45
2024/03/06 10:28:13;;;;;;;19.48;9.75;;;;;;;14.57;63.83;100180.22;5110897;28;20051;-44
2024/03/06 10:30:43;;;;;;;15.50;9.65;;;;;;;14.54;63.02;100180.47;5110997;28;20044;-44
2024/03/06 10:33:14;;;;;;;16.52;9.10;;;;;;;14.74;63.34;100176.22;5110782;28;20047;-43
2024/03/06 10:35:44;;;;;;;18.20;8.88;;;;;;;15.00;63.74;100176.84;5110931;28;20090;-45
2024/03/06 10:38:13;;;;;;;16.92;9.85;;;;;;;15.01;62.09;100173.19;5110711;28;20470;-45
2024/03/06 10:40:43;;;;;;;17.23;10.23;;;;;;;15.14;62.46;100171.22;5111019;28;20044;-46
2024/03/06 10:43:12;;;;;;;15.02;10.02;;;;;;;15.11;61.63;100168.78;5110945;28;20040;-44
2024/03/06 10:45:47;;;;;;;16.73;10.13;;;;;;;15.34;61.39;100164.22;5111076;28;20469;-44
2024/03/06 10:48:17;;;;;;;18.10;10.68;;;;;;;15.39;61.46;100162.03;5110916;28;20058;-46
2024/03/06 10:50:47;;;;;;;18.77;10.30;;;;;;;15.27;61.40;100155.81;5110815;28;20044;-44
2024/03/06 10:53:17;;;;;;;17.52;9.95;;;;;;;15.54;60.92;100154.53;5111152;28;20157;-43
2024/03/06 10:55:51;;;;;;;17.17;9.98;;;;;;;15.61;60.26;100147.69;5116608;28;20081;-44
2024/03/06 10:58:21;;;;;;;17.63;9.93;;;;;;;15.84;60.28;100143.97;5131147;28;20069;-45
2024/03/06 11:00:49;;;;;;;17.08;9.60;;;;;;;15.90;60.19;100145.28;5130983;28;20047;-44
2024/03/06 11:03:18;;;;;;;17.08;9.98;;;;;;;15.97;59.84;100144.63;5130902;28;20054;-44
2024/03/06 11:05:50;;;;;;;17.88;9.63;;;;;;;16.04;60.77;100134.22;5131024;28;20376;-45
2024/03/06 11:08:20;;;;;;;18.60;9.75;;;;;;;15.97;60.64;100135.72;5131064;28;20050;-46
2024/03/06 11:10:49;;;;;;;16.40;9.40;;;;;;;16.03;59.95;100130.69;5131137;28;20039;-44
2024/03/06 11:13:25;;;;;;;20.60;9.88;;;;;;;16.06;60.75;100124.19;5131009;28;20082;-45
2024/03/06 11:15:57;;;;;;;21.65;10.63;;;;;;;16.14;60.48;100120.84;5131230;28;20092;-45
2024/03/06 11:18:46;;;;;;;19.55;10.15;;;;;;;15.92;59.79;100128.03;5131014;28;20044;-45
2024/03/06 11:21:30;;;;;;;16.83;9.88;;;;;;;15.97;59.04;100125.81;5131083;28;20484;-46
2024/03/06 11:24:34;;;;;;;18.10;10.07;;;;;;;16.11;60.12;100116.53;5130866;28;20048;-44